Terminal Aerodrome Forecast
Issued by NWS

Home | Current Version | Previous Version | Text Only | Print | Product List | Glossary On
Versions: 1 2 3 4 5 6 7 8 9 10 11 12 13 14
499
FTAK31 PAJN 251124
TAFAGY
TAF
PAGY 251124Z 2512/2612 VRB04KT P6SM VCSH SCT015 BKN040 OVC060
      TEMPO 2512/2516 BKN020 OVC060
     FM252100 21015G25KT P6SM VCSH BKN025 OVC040
     FM260700 21020G30KT P6SM VCSH BKN015 OVC030
      AMD LTD TO CLD VIS AND WIND=

USA.gov is the U.S. government's official web portal to all federal, state and local government web resources and services.